ěÝzenÝ letovÚho provozu ╚eskÚ republiky
Letiste: LKBC Aktualizace: 01.12.2023 21:26:38  UTC
 METAR LKBC 01.12. 21:30 ...
METAR LKBC 012130Z AUTO VRB02KT //// // VV010 M02/M02 Q1001=